createdAt,value
2018-10-05T00:00:09.155Z,942.4
2018-10-05T00:01:09.502Z,942.3
2018-10-05T00:02:09.410Z,942.5
2018-10-05T00:03:09.330Z,942.4
2018-10-05T00:04:09.245Z,942.5
2018-10-05T00:05:09.171Z,942.5
2018-10-05T00:06:09.093Z,942.4
2018-10-05T00:07:08.990Z,942.5
2018-10-05T00:08:08.920Z,942.4
2018-10-05T00:09:08.819Z,942.4
2018-10-05T00:10:08.726Z,942.3
2018-10-05T00:11:08.882Z,942.5
2018-10-05T00:12:08.616Z,942.5
2018-10-05T00:13:08.357Z,941.9
2018-10-05T00:14:08.124Z,942.4
2018-10-05T00:15:07.870Z,942.3
2018-10-05T00:16:07.610Z,942.4
2018-10-05T00:17:07.346Z,942.3
2018-10-05T00:18:07.091Z,942.4
2018-10-05T00:19:06.838Z,942.3
2018-10-05T00:20:06.607Z,942.3
2018-10-05T00:21:07.265Z,942.3
2018-10-05T00:22:06.999Z,942.4
2018-10-05T00:23:06.735Z,942.3
2018-10-05T00:24:06.481Z,942.3
2018-10-05T00:25:06.226Z,942.3
2018-10-05T00:26:05.997Z,942.3
2018-10-05T00:27:05.738Z,942.3
2018-10-05T00:28:05.484Z,942.3
2018-10-05T00:29:05.217Z,942.3
2018-10-05T00:30:04.967Z,942.3
2018-10-05T00:31:05.172Z,942.3
2018-10-05T00:32:04.912Z,942.3
2018-10-05T00:33:04.653Z,942.3
2018-10-05T00:34:04.397Z,942.2
2018-10-05T00:35:04.134Z,942.3
2018-10-05T00:36:03.894Z,942.1
2018-10-05T00:37:03.628Z,942.3
2018-10-05T00:38:03.728Z,942.3
2018-10-05T00:39:03.534Z,942.3
2018-10-05T00:40:03.292Z,942.3
2018-10-05T00:41:03.494Z,942.4
2018-10-05T00:42:03.250Z,942.3
2018-10-05T00:43:03.000Z,942.3
2018-10-05T00:44:02.748Z,942.3
2018-10-05T00:45:02.493Z,942.3
2018-10-05T00:46:02.221Z,942.3
2018-10-05T00:47:01.985Z,942.3
2018-10-05T00:48:01.740Z,942.3
2018-10-05T00:49:01.482Z,942.3
2018-10-05T00:50:01.219Z,942.2
2018-10-05T00:51:01.387Z,942.3
2018-10-05T00:52:01.123Z,942.3
2018-10-05T00:53:01.316Z,942.3
2018-10-05T00:54:01.156Z,942.3
2018-10-05T00:55:00.941Z,942.3
2018-10-05T00:56:00.688Z,942.3
2018-10-05T00:57:00.421Z,942.3
2018-10-05T00:58:00.160Z,942.3
2018-10-05T00:58:59.918Z,942.2
2018-10-05T00:59:59.649Z,942.2
2018-10-05T01:00:59.997Z,942.3
2018-10-05T01:01:59.910Z,942.4
2018-10-05T01:02:59.806Z,942.3
2018-10-05T01:03:59.699Z,942.4
2018-10-05T01:04:59.853Z,942.3
2018-10-05T01:05:59.748Z,942.2
2018-10-05T01:06:59.638Z,942.4
2018-10-05T01:07:59.555Z,942.3
2018-10-05T01:08:59.473Z,942.3
2018-10-05T01:09:59.415Z,942.3
2018-10-05T01:11:00.009Z,942.4
2018-10-05T01:11:59.929Z,942.3
2018-10-05T01:12:59.839Z,942.3
2018-10-05T01:13:59.753Z,942.3
2018-10-05T01:14:59.687Z,942.3
2018-10-05T01:15:59.604Z,942.4
2018-10-05T01:16:59.509Z,942.3
2018-10-05T01:17:59.417Z,942.4
2018-10-05T01:18:59.538Z,942.3
2018-10-05T01:19:59.439Z,942.3
2018-10-05T01:20:59.655Z,942.3
2018-10-05T01:21:59.617Z,942.3
2018-10-05T01:22:59.352Z,942.3
2018-10-05T01:23:59.100Z,942.3
2018-10-05T01:24:59.300Z,942.3
2018-10-05T01:25:59.135Z,942.2
2018-10-05T01:26:58.898Z,942.2
2018-10-05T01:27:58.645Z,942.3
2018-10-05T01:28:58.387Z,942.2
2018-10-05T01:29:58.140Z,942.2
2018-10-05T01:30:58.325Z,942.2
2018-10-05T01:31:58.089Z,942.3
2018-10-05T01:32:57.811Z,942.3
2018-10-05T01:33:57.543Z,942.2
2018-10-05T01:34:57.286Z,942.2
2018-10-05T01:35:57.023Z,942.1
2018-10-05T01:36:56.750Z,942.2
2018-10-05T01:37:56.726Z,942.2
2018-10-05T01:38:56.855Z,942.3
2018-10-05T01:39:56.692Z,942.2
2018-10-05T01:40:56.860Z,942.2
2018-10-05T01:41:56.586Z,942.3
2018-10-05T01:42:56.336Z,942.3
2018-10-05T01:43:56.078Z,942.3
2018-10-05T01:44:55.811Z,942.3
2018-10-05T01:45:55.587Z,942.2
2018-10-05T01:46:55.321Z,942.3
2018-10-05T01:47:55.055Z,942.1
2018-10-05T01:48:54.812Z,942.2
2018-10-05T01:49:54.547Z,942.2
2018-10-05T01:50:54.715Z,942.3
2018-10-05T01:51:54.448Z,942.3
2018-10-05T01:52:54.193Z,942.2
2018-10-05T01:53:53.920Z,942.3
2018-10-05T01:54:53.896Z,942.3
2018-10-05T01:55:53.626Z,942.2
2018-10-05T01:56:53.355Z,942.2
2018-10-05T01:57:53.089Z,942.3
2018-10-05T01:58:52.828Z,942.2
2018-10-05T01:59:52.590Z,942.1
2018-10-05T02:00:52.947Z,942.2
2018-10-05T02:01:52.848Z,942.3
2018-10-05T02:02:52.756Z,942.2
2018-10-05T02:03:52.667Z,942.2
2018-10-05T02:04:52.591Z,942.1
2018-10-05T02:05:52.517Z,942.1
2018-10-05T02:06:52.424Z,942.1
2018-10-05T02:07:52.322Z,942
2018-10-05T02:08:52.221Z,942.1
2018-10-05T02:09:52.126Z,942.1
2018-10-05T02:10:52.478Z,942.1
2018-10-05T02:11:52.391Z,942.1
2018-10-05T02:12:52.292Z,942.1
2018-10-05T02:13:52.212Z,942
2018-10-05T02:14:52.137Z,942
2018-10-05T02:15:52.040Z,942
2018-10-05T02:16:51.969Z,942
2018-10-05T02:17:51.875Z,942
2018-10-05T02:18:54.489Z,942.1
2018-10-05T02:19:54.392Z,942
2018-10-05T02:20:54.734Z,942
2018-10-05T02:21:54.670Z,942
2018-10-05T02:22:54.567Z,942
2018-10-05T02:23:54.532Z,941.9
2018-10-05T02:24:54.444Z,942
2018-10-05T02:25:54.360Z,942
2018-10-05T02:26:54.265Z,942
2018-10-05T02:27:54.212Z,941.9
2018-10-05T02:28:54.126Z,941.4
2018-10-05T02:29:54.029Z,941.3
2018-10-05T02:30:54.219Z,941.9
2018-10-05T02:31:53.964Z,941.9
2018-10-05T02:32:54.002Z,941.9
2018-10-05T02:33:53.766Z,942
2018-10-05T02:34:53.510Z,942
2018-10-05T02:35:53.251Z,941.4
2018-10-05T02:36:52.984Z,941.9
2018-10-05T02:37:52.723Z,941.8
2018-10-05T02:38:52.473Z,942
2018-10-05T02:39:52.455Z,941.8
2018-10-05T02:40:52.794Z,941.9
2018-10-05T02:41:52.965Z,941.8
2018-10-05T02:42:52.874Z,941.8
2018-10-05T02:43:52.787Z,941.8
2018-10-05T02:44:52.726Z,941.9
2018-10-05T02:45:52.864Z,941.9
2018-10-05T02:46:52.762Z,941.9
2018-10-05T02:47:52.665Z,941.9
2018-10-05T02:48:52.565Z,941.8
2018-10-05T02:49:52.500Z,941.9
2018-10-05T02:50:52.938Z,941.8
2018-10-05T02:51:52.846Z,941.5
2018-10-05T02:52:52.753Z,941.9
2018-10-05T02:53:52.666Z,941.9
2018-10-05T02:54:52.575Z,941.9
2018-10-05T02:55:52.507Z,941.9
2018-10-05T02:56:52.421Z,941.9
2018-10-05T02:57:52.334Z,941.9
2018-10-05T02:58:52.277Z,941.5
2018-10-05T02:59:52.197Z,941.8
2018-10-05T03:00:52.555Z,941.9
2018-10-05T03:01:52.487Z,941.7
2018-10-05T03:02:52.384Z,941.8
2018-10-05T03:03:52.345Z,941.8
2018-10-05T03:04:52.253Z,941.8
2018-10-05T03:05:52.166Z,941.7
2018-10-05T03:06:52.087Z,941.7
2018-10-05T03:07:52.013Z,941.7
2018-10-05T03:08:51.930Z,941.5
2018-10-05T03:09:51.851Z,941.7
2018-10-05T03:10:52.167Z,941.6
2018-10-05T03:11:52.060Z,941.6
2018-10-05T03:12:51.992Z,941.6
2018-10-05T03:13:51.905Z,941.6
2018-10-05T03:14:51.816Z,941.7
2018-10-05T03:15:51.747Z,941.6
2018-10-05T03:16:51.663Z,941.5
2018-10-05T03:17:51.582Z,941.5
2018-10-05T03:18:51.522Z,941.6
2018-10-05T03:19:52.172Z,941.5
2018-10-05T03:20:52.617Z,941.5
2018-10-05T03:21:52.545Z,941.5
2018-10-05T03:22:52.451Z,941.5
2018-10-05T03:23:52.372Z,941.6
2018-10-05T03:24:52.292Z,941.5
2018-10-05T03:25:52.227Z,941.5
2018-10-05T03:26:52.147Z,941.5
2018-10-05T03:27:52.055Z,941.4
2018-10-05T03:28:51.966Z,941.5
2018-10-05T03:29:51.892Z,941.5
2018-10-05T03:30:52.270Z,941.5
2018-10-05T03:31:52.188Z,941.4
2018-10-05T03:32:52.112Z,941.4
2018-10-05T03:33:52.025Z,941.5
2018-10-05T03:34:51.957Z,941.5
2018-10-05T03:35:51.877Z,941.5
2018-10-05T03:36:51.789Z,941.5
2018-10-05T03:37:51.697Z,941.5
2018-10-05T03:38:51.605Z,941.3
2018-10-05T03:39:51.518Z,941.4
2018-10-05T03:40:52.165Z,941.5
2018-10-05T03:41:52.078Z,941.6
2018-10-05T03:42:52.007Z,941.6
2018-10-05T03:43:51.934Z,941.5
2018-10-05T03:44:51.911Z,941.5
2018-10-05T03:45:51.859Z,941.4
2018-10-05T03:46:51.805Z,941.5
2018-10-05T03:47:51.703Z,941.5
2018-10-05T03:48:51.610Z,941.4
2018-10-05T03:49:51.757Z,941.4
2018-10-05T03:50:52.118Z,941.5
2018-10-05T03:51:52.038Z,941.4
2018-10-05T03:52:51.942Z,941.5
2018-10-05T03:53:51.849Z,941.3
2018-10-05T03:54:51.757Z,941.5
2018-10-05T03:55:51.661Z,941.4
2018-10-05T03:56:51.582Z,941.5
2018-10-05T03:57:51.493Z,941.4
2018-10-05T03:58:51.454Z,940.8
2018-10-05T03:59:51.357Z,941.4
2018-10-05T04:00:51.716Z,941.4
2018-10-05T04:01:51.614Z,941.4
2018-10-05T04:02:51.580Z,941.4
2018-10-05T04:03:51.500Z,941.4
2018-10-05T04:04:51.412Z,941.4
2018-10-05T04:05:51.313Z,941.4
2018-10-05T04:06:51.228Z,941.4
2018-10-05T04:07:51.132Z,941.3
2018-10-05T04:08:51.272Z,941.3
2018-10-05T04:09:51.189Z,941.3
2018-10-05T04:10:51.370Z,941.3
2018-10-05T04:11:51.117Z,941.2
2018-10-05T04:12:50.857Z,941.2
2018-10-05T04:13:50.618Z,941.2
2018-10-05T04:14:50.339Z,941.3
2018-10-05T04:15:50.091Z,941.3
2018-10-05T04:16:49.821Z,941.2
2018-10-05T04:17:49.569Z,941.3
2018-10-05T04:18:49.321Z,941.2
2018-10-05T04:19:49.097Z,941.4
2018-10-05T04:20:49.273Z,941.3
2018-10-05T04:21:49.009Z,941.3
2018-10-05T04:22:48.766Z,941.3
2018-10-05T04:23:48.497Z,941.3
2018-10-05T04:24:48.259Z,941.3
2018-10-05T04:25:48.024Z,941.3
2018-10-05T04:26:47.768Z,941.3
2018-10-05T04:27:47.502Z,941.3
2018-10-05T04:28:47.238Z,941.3
2018-10-05T04:29:46.967Z,941.3
2018-10-05T04:30:47.362Z,941.2
2018-10-05T04:31:47.283Z,941.3
2018-10-05T04:32:47.207Z,941.2
2018-10-05T04:33:47.116Z,941.3
2018-10-05T04:34:47.029Z,941.3
2018-10-05T04:35:47.631Z,941.3
2018-10-05T04:36:47.675Z,941.3
2018-10-05T04:37:47.580Z,941.3
2018-10-05T04:38:47.507Z,941.3
2018-10-05T04:39:47.410Z,941.1
2018-10-05T04:40:47.582Z,941.3
2018-10-05T04:41:47.345Z,941
2018-10-05T04:42:47.161Z,941.2
2018-10-05T04:43:46.920Z,941.3
2018-10-05T04:44:46.708Z,941.3
2018-10-05T04:45:46.459Z,941.2
2018-10-05T04:46:46.189Z,941.3
2018-10-05T04:47:45.930Z,941.2
2018-10-05T04:48:45.687Z,941.3
2018-10-05T04:49:45.901Z,941.1
2018-10-05T04:50:46.468Z,941.2
2018-10-05T04:51:46.366Z,941.1
2018-10-05T04:52:46.284Z,941.1
2018-10-05T04:53:46.209Z,941.2
2018-10-05T04:54:46.110Z,941.2
2018-10-05T04:55:46.016Z,941.2
2018-10-05T04:56:46.448Z,941.2
2018-10-05T04:57:46.443Z,941.1
2018-10-05T04:58:46.378Z,941.2
2018-10-05T04:59:46.277Z,941.2
2018-10-05T05:00:46.634Z,941.1
2018-10-05T05:01:46.533Z,941.2
2018-10-05T05:02:46.448Z,941.2
2018-10-05T05:03:46.350Z,941.2
2018-10-05T05:04:46.278Z,941.2
2018-10-05T05:05:46.177Z,941.3
2018-10-05T05:06:46.086Z,941.3
2018-10-05T05:07:45.990Z,941.2
2018-10-05T05:08:45.894Z,941.3
2018-10-05T05:09:45.843Z,941.3
2018-10-05T05:10:46.236Z,941.3
2018-10-05T05:11:46.137Z,941.2
2018-10-05T05:12:46.032Z,941.2
2018-10-05T05:13:45.944Z,941.3
2018-10-05T05:14:45.844Z,941.3
2018-10-05T05:15:45.802Z,941.3
2018-10-05T05:16:45.717Z,941.2
2018-10-05T05:17:45.626Z,941.2
2018-10-05T05:18:45.539Z,941.3
2018-10-05T05:19:46.134Z,941.3
2018-10-05T05:20:46.736Z,941.2
2018-10-05T05:21:46.657Z,941.3
2018-10-05T05:22:46.557Z,941.3
2018-10-05T05:23:46.463Z,941.2
2018-10-05T05:24:46.371Z,941.2
2018-10-05T05:25:46.366Z,941.3
2018-10-05T05:26:46.266Z,941.3
2018-10-05T05:27:46.177Z,941.2
2018-10-05T05:28:46.099Z,941.3
2018-10-05T05:29:46.020Z,941.2
2018-10-05T05:30:46.374Z,941.2
2018-10-05T05:31:46.300Z,941.2
2018-10-05T05:32:46.200Z,941.2
2018-10-05T05:33:46.367Z,941.1
2018-10-05T05:34:46.282Z,941.3
2018-10-05T05:35:46.192Z,941.2
2018-10-05T05:36:46.106Z,941.2
2018-10-05T05:37:46.000Z,941.3
2018-10-05T05:38:45.918Z,941.3
2018-10-05T05:39:45.831Z,941.3
2018-10-05T05:40:46.529Z,941.2
2018-10-05T05:41:46.453Z,941.3
2018-10-05T05:42:46.364Z,941.3
2018-10-05T05:43:46.270Z,941.3
2018-10-05T05:44:46.171Z,941.2
2018-10-05T05:45:46.094Z,941.3
2018-10-05T05:46:46.577Z,941.3
2018-10-05T05:47:46.559Z,941.2
2018-10-05T05:48:46.468Z,941.3
2018-10-05T05:49:46.382Z,941.3
2018-10-05T05:50:46.739Z,941.2
2018-10-05T05:51:46.664Z,941.2
2018-10-05T05:52:46.597Z,941.2
2018-10-05T05:53:46.493Z,941.2
2018-10-05T05:54:46.417Z,941.3
2018-10-05T05:55:46.333Z,941.2
2018-10-05T05:56:46.255Z,941.3
2018-10-05T05:57:46.169Z,941.2
2018-10-05T05:58:46.095Z,941.3
2018-10-05T05:59:46.017Z,941.2
2018-10-05T06:00:46.393Z,941.3
2018-10-05T06:01:46.308Z,941.3
2018-10-05T06:02:46.221Z,941.3
2018-10-05T06:03:46.143Z,941.2
2018-10-05T06:04:46.053Z,940.7
2018-10-05T06:05:45.975Z,941.3
2018-10-05T06:06:45.878Z,941.3
2018-10-05T06:07:45.786Z,941.4
2018-10-05T06:08:45.711Z,941.3
2018-10-05T06:09:45.702Z,941.3
2018-10-05T06:10:46.094Z,941.3
2018-10-05T06:11:46.003Z,940.9
2018-10-05T06:12:45.917Z,941.3
2018-10-05T06:13:45.814Z,941.3
2018-10-05T06:14:45.741Z,941.3
2018-10-05T06:15:45.692Z,941.4
2018-10-05T06:16:45.612Z,941.2
2018-10-05T06:17:45.534Z,941.4
2018-10-05T06:18:45.427Z,941.2
2018-10-05T06:19:45.338Z,940.8
2018-10-05T06:20:45.683Z,941.4
2018-10-05T06:21:46.880Z,941.3
2018-10-05T06:22:46.963Z,941.4
2018-10-05T06:23:46.881Z,941.3
2018-10-05T06:24:46.809Z,941.4
2018-10-05T06:25:46.727Z,941.3
2018-10-05T06:26:46.630Z,941.4
2018-10-05T06:27:46.546Z,941.3
2018-10-05T06:28:46.448Z,941.3
2018-10-05T06:29:46.345Z,941.3
2018-10-05T06:30:47.239Z,941.3
2018-10-05T06:31:47.156Z,940.7
2018-10-05T06:32:47.060Z,941.2
2018-10-05T06:33:46.969Z,941
2018-10-05T06:34:46.892Z,941.3
2018-10-05T06:35:46.820Z,941.4
2018-10-05T06:36:46.763Z,941.4
2018-10-05T06:37:46.671Z,941.2
2018-10-05T06:38:46.593Z,941.4
2018-10-05T06:39:46.522Z,941.4
2018-10-05T06:40:46.894Z,941.3
2018-10-05T06:41:47.073Z,941.2
2018-10-05T06:42:46.995Z,941.4
2018-10-05T06:43:46.917Z,941.3
2018-10-05T06:44:46.893Z,941.3
2018-10-05T06:45:46.798Z,941.3
2018-10-05T06:46:46.726Z,941.3
2018-10-05T06:47:46.643Z,941.2
2018-10-05T06:48:46.560Z,941.3
2018-10-05T06:49:46.484Z,941.3
2018-10-05T06:50:46.838Z,941.4
2018-10-05T06:51:46.768Z,941.3
2018-10-05T06:52:46.673Z,941.3
2018-10-05T06:53:46.583Z,941.3
2018-10-05T06:54:46.486Z,941.3
2018-10-05T06:55:46.381Z,941.2
2018-10-05T06:56:46.292Z,941.2
2018-10-05T06:57:46.233Z,941.3
2018-10-05T06:58:46.150Z,941.3
2018-10-05T06:59:46.063Z,941.3
2018-10-05T07:00:46.400Z,941.3
2018-10-05T07:01:46.573Z,941.4
2018-10-05T07:02:46.606Z,941.3
2018-10-05T07:03:46.516Z,941.4
2018-10-05T07:04:46.441Z,941.4
2018-10-05T07:05:46.339Z,941.5
2018-10-05T07:06:46.266Z,941.3
2018-10-05T07:07:47.157Z,941.5
2018-10-05T07:08:47.217Z,941.4
2018-10-05T07:09:47.138Z,941.4
2018-10-05T07:10:47.492Z,941.4
2018-10-05T07:11:47.398Z,941.4
2018-10-05T07:12:47.325Z,941.3
2018-10-05T07:13:47.245Z,941.5
2018-10-05T07:14:47.168Z,941.4
2018-10-05T07:15:47.452Z,941.5
2018-10-05T07:16:47.581Z,941.5
2018-10-05T07:17:47.505Z,941.5
2018-10-05T07:18:47.561Z,941.5
2018-10-05T07:19:47.512Z,941.5
2018-10-05T07:20:47.697Z,941.5
2018-10-05T07:21:47.438Z,941.5
2018-10-05T07:22:47.177Z,941.5
2018-10-05T07:23:46.927Z,941.4
2018-10-05T07:24:46.668Z,941.5
2018-10-05T07:25:46.416Z,941.5
2018-10-05T07:26:46.161Z,941.5
2018-10-05T07:27:45.900Z,941.5
2018-10-05T07:28:46.161Z,941.4
2018-10-05T07:29:45.952Z,941.5
2018-10-05T07:30:46.328Z,941.5
2018-10-05T07:31:46.239Z,941.5
2018-10-05T07:32:46.138Z,941.6
2018-10-05T07:33:46.054Z,941.5
2018-10-05T07:34:45.961Z,941.5
2018-10-05T07:35:45.889Z,941.5
2018-10-05T07:36:46.153Z,941.5
2018-10-05T07:37:46.071Z,941.3
2018-10-05T07:38:45.972Z,941.5
2018-10-05T07:39:45.883Z,941.5
2018-10-05T07:40:46.244Z,941.5
2018-10-05T07:41:46.224Z,941.4
2018-10-05T07:42:46.134Z,941.5
2018-10-05T07:43:46.048Z,941.5
2018-10-05T07:44:45.958Z,941.5
2018-10-05T07:45:45.886Z,941.5
2018-10-05T07:46:45.874Z,941.5
2018-10-05T07:47:45.783Z,941.4
2018-10-05T07:48:45.700Z,941.5
2018-10-05T07:49:45.642Z,941.1
2018-10-05T07:50:45.990Z,941.5
2018-10-05T07:51:46.075Z,941.4
2018-10-05T07:52:45.914Z,941.4
2018-10-05T07:53:45.646Z,941.4
2018-10-05T07:54:45.390Z,941.5
2018-10-05T07:55:45.133Z,941.5
2018-10-05T07:56:44.874Z,941.4
2018-10-05T07:57:44.809Z,941.3
2018-10-05T07:58:44.566Z,941.3
2018-10-05T07:59:44.301Z,941.4
2018-10-05T08:00:44.695Z,941.5
2018-10-05T08:01:44.644Z,941.6
2018-10-05T08:02:44.543Z,941.5
2018-10-05T08:03:44.475Z,941.6
2018-10-05T08:04:44.394Z,941.4
2018-10-05T08:05:44.302Z,941.5
2018-10-05T08:06:44.218Z,941.5
2018-10-05T08:07:44.128Z,941.1
2018-10-05T08:08:44.050Z,941.6
2018-10-05T08:09:44.777Z,941.6
2018-10-05T08:10:45.251Z,941.5
2018-10-05T08:11:45.177Z,941.2
2018-10-05T08:12:45.092Z,941.5
2018-10-05T08:13:44.998Z,941.6
2018-10-05T08:14:44.920Z,941.5
2018-10-05T08:15:44.833Z,941.5
2018-10-05T08:16:44.741Z,941.5
2018-10-05T08:17:44.656Z,941.6
2018-10-05T08:18:44.559Z,941.5
2018-10-05T08:19:44.509Z,941.5
2018-10-05T08:20:44.832Z,941.5
2018-10-05T08:21:44.729Z,941.5
2018-10-05T08:22:44.645Z,941.5
2018-10-05T08:23:44.539Z,941.6
2018-10-05T08:24:44.448Z,941.5
2018-10-05T08:25:44.410Z,941.6
2018-10-05T08:26:44.321Z,941.5
2018-10-05T08:27:44.524Z,941.4
2018-10-05T08:28:44.497Z,941.5
2018-10-05T08:29:44.397Z,941.5
2018-10-05T08:30:44.772Z,941.4
2018-10-05T08:31:47.730Z,941.4
2018-10-05T08:32:47.639Z,941.3
2018-10-05T08:33:47.554Z,941.4
2018-10-05T08:34:48.369Z,941.4
2018-10-05T08:35:48.305Z,941.2
2018-10-05T08:36:48.208Z,941.3
2018-10-05T08:37:48.127Z,941.4
2018-10-05T08:38:48.033Z,941.4
2018-10-05T08:39:48.823Z,941.3
2018-10-05T08:40:49.949Z,941.4
2018-10-05T08:41:49.692Z,941.3
2018-10-05T08:42:49.492Z,941.1
2018-10-05T08:43:49.226Z,941.4
2018-10-05T08:44:48.964Z,941.2
2018-10-05T08:45:48.949Z,941.3
2018-10-05T08:46:48.710Z,941.4
2018-10-05T08:47:48.442Z,941.3
2018-10-05T08:48:48.175Z,941.3
2018-10-05T08:49:47.910Z,941.3
2018-10-05T08:50:48.269Z,941.3
2018-10-05T08:51:48.976Z,941.3
2018-10-05T08:52:48.973Z,941.3
2018-10-05T08:53:48.879Z,941.3
2018-10-05T08:54:48.787Z,941.2
2018-10-05T08:55:48.681Z,941.3
2018-10-05T08:56:48.598Z,941.2
2018-10-05T08:57:48.506Z,941.3
2018-10-05T08:58:48.441Z,941.2
2018-10-05T08:59:48.354Z,941.3
2018-10-05T09:00:48.959Z,941.2
2018-10-05T09:01:48.868Z,941.2
2018-10-05T09:02:48.804Z,940.7
2018-10-05T09:03:48.710Z,941.2
2018-10-05T09:04:48.634Z,941.1
2018-10-05T09:05:49.021Z,941.2
2018-10-05T09:06:49.010Z,941.2
2018-10-05T09:07:48.926Z,941
2018-10-05T09:08:48.838Z,941.1
2018-10-05T09:09:48.779Z,941.1
2018-10-05T09:10:49.132Z,941.2
2018-10-05T09:11:49.045Z,941.1
2018-10-05T09:12:48.789Z,941.1
2018-10-05T09:13:48.542Z,941.1
2018-10-05T09:14:48.280Z,941.1
2018-10-05T09:15:48.046Z,941.1
2018-10-05T09:16:47.794Z,941
2018-10-05T09:17:48.247Z,941
2018-10-05T09:18:48.039Z,941
2018-10-05T09:19:47.774Z,941
2018-10-05T09:20:47.958Z,941.1
2018-10-05T09:21:47.692Z,941
2018-10-05T09:22:47.447Z,941.1
2018-10-05T09:23:47.186Z,941.1
2018-10-05T09:24:46.953Z,941
2018-10-05T09:25:46.702Z,940.9
2018-10-05T09:26:46.463Z,941
2018-10-05T09:27:46.218Z,941
2018-10-05T09:28:45.956Z,940.9
2018-10-05T09:29:45.712Z,940.9
2018-10-05T09:30:46.983Z,940.9
2018-10-05T09:31:46.993Z,940.8
2018-10-05T09:32:46.916Z,940.9
2018-10-05T09:33:46.845Z,940.8
2018-10-05T09:34:46.748Z,940.9
2018-10-05T09:35:46.684Z,940.9
2018-10-05T09:36:46.645Z,940.9
2018-10-05T09:37:46.966Z,940.9
2018-10-05T09:38:46.980Z,940.9
2018-10-05T09:39:46.904Z,940.8
2018-10-05T09:40:47.301Z,940.9
2018-10-05T09:41:47.218Z,940.7
2018-10-05T09:42:47.130Z,940.8
2018-10-05T09:43:46.876Z,940.8
2018-10-05T09:44:46.870Z,940.7
2018-10-05T09:45:46.626Z,940.8
2018-10-05T09:46:46.372Z,940.8
2018-10-05T09:47:46.109Z,940.8
2018-10-05T09:48:45.864Z,940.7
2018-10-05T09:49:45.589Z,940.7
2018-10-05T09:50:45.931Z,940.7
2018-10-05T09:51:46.302Z,940.5
2018-10-05T09:52:47.096Z,940.7
2018-10-05T09:53:47.052Z,940.7
2018-10-05T09:54:46.966Z,940.6
2018-10-05T09:55:46.859Z,940.6
2018-10-05T09:56:46.798Z,940.6
2018-10-05T09:57:46.725Z,940.6
2018-10-05T09:58:46.641Z,940.7
2018-10-05T09:59:47.491Z,940.7
2018-10-05T10:00:48.578Z,940.6
2018-10-05T10:01:48.512Z,940.7
2018-10-05T10:02:48.435Z,940.7
2018-10-05T10:03:48.362Z,940.7
2018-10-05T10:04:48.268Z,940.8
2018-10-05T10:05:48.185Z,940.8
2018-10-05T10:06:48.100Z,940.7
2018-10-05T10:07:48.297Z,940.7
2018-10-05T10:08:48.216Z,940.7
2018-10-05T10:09:48.125Z,940.6
2018-10-05T10:10:48.475Z,940.7
2018-10-05T10:11:48.397Z,940.6
2018-10-05T10:12:48.331Z,940.6
2018-10-05T10:13:48.686Z,940.6
2018-10-05T10:14:48.653Z,940.6
2018-10-05T10:15:48.549Z,940.6
2018-10-05T10:16:48.513Z,940.7
2018-10-05T10:17:48.416Z,940.7
2018-10-05T10:18:48.357Z,940.7
2018-10-05T10:19:48.267Z,940.7
2018-10-05T10:20:48.622Z,940.7
2018-10-05T10:21:48.523Z,940.6
2018-10-05T10:22:51.381Z,940.7
2018-10-05T10:23:51.359Z,940.7
2018-10-05T10:24:51.258Z,940.7
2018-10-05T10:25:51.173Z,940.6
2018-10-05T10:26:51.095Z,940.6
2018-10-05T10:27:51.253Z,940.6
2018-10-05T10:28:52.136Z,940.6
2018-10-05T10:29:52.064Z,940.5
2018-10-05T10:30:52.433Z,940.6
2018-10-05T10:31:52.333Z,940.6
2018-10-05T10:32:52.247Z,940.6
2018-10-05T10:33:52.027Z,940.6
2018-10-05T10:34:51.771Z,940.6
2018-10-05T10:35:51.504Z,940.6
2018-10-05T10:36:51.574Z,940.6
2018-10-05T10:37:51.384Z,940.5
2018-10-05T10:38:51.145Z,940.5
2018-10-05T10:39:50.996Z,940.5
2018-10-05T10:40:51.519Z,940.5
2018-10-05T10:41:51.419Z,940.4
2018-10-05T10:42:51.352Z,940.5
2018-10-05T10:43:51.341Z,940.4
2018-10-05T10:44:51.275Z,940.5
2018-10-05T10:45:51.196Z,940.5
2018-10-05T10:46:51.116Z,940.5
2018-10-05T10:47:51.034Z,940.5
2018-10-05T10:48:50.955Z,940.4
2018-10-05T10:49:50.889Z,940.5
2018-10-05T10:50:51.288Z,940.4
2018-10-05T10:51:51.192Z,940.5
2018-10-05T10:52:51.089Z,940.4
2018-10-05T10:53:51.307Z,940.5
2018-10-05T10:54:51.534Z,940.4
2018-10-05T10:55:51.452Z,940.3
2018-10-05T10:56:51.367Z,940.4
2018-10-05T10:57:51.289Z,940.4
2018-10-05T10:58:51.200Z,940.4
2018-10-05T10:59:51.102Z,940.4
2018-10-05T11:00:52.658Z,940.2
2018-10-05T11:01:52.709Z,940.3
2018-10-05T11:02:52.742Z,940.4
2018-10-05T11:03:52.903Z,940.2
2018-10-05T11:04:53.286Z,940.3
2018-10-05T11:05:53.219Z,940.2
2018-10-05T11:06:53.131Z,940.2
2018-10-05T11:07:53.042Z,940.1
2018-10-05T11:08:52.978Z,940.2
2018-10-05T11:09:52.890Z,940.2
2018-10-05T11:10:53.484Z,940.1
2018-10-05T11:11:53.407Z,940.2
2018-10-05T11:12:53.331Z,940.1
2018-10-05T11:13:53.260Z,940.1
2018-10-05T11:14:53.165Z,940.1
2018-10-05T11:15:53.087Z,940
2018-10-05T11:16:53.343Z,940.1
2018-10-05T11:17:53.255Z,940
2018-10-05T11:18:53.169Z,940
2018-10-05T11:19:53.099Z,940
2018-10-05T11:20:53.496Z,940
2018-10-05T11:21:53.403Z,940
2018-10-05T11:22:53.451Z,939.9
2018-10-05T11:23:53.186Z,939.9
2018-10-05T11:24:52.941Z,939.9
2018-10-05T11:25:52.677Z,939.9
2018-10-05T11:26:52.445Z,939.8
2018-10-05T11:27:52.180Z,939.9
2018-10-05T11:28:51.926Z,939.9
2018-10-05T11:29:51.688Z,939.9
2018-10-05T11:30:52.031Z,939.9
2018-10-05T11:31:51.982Z,939.8
2018-10-05T11:32:51.887Z,939.8
2018-10-05T11:33:51.794Z,939.5
2018-10-05T11:34:51.842Z,939.7
2018-10-05T11:35:51.759Z,939.8
2018-10-05T11:36:51.667Z,939.8
2018-10-05T11:37:51.609Z,939.8
2018-10-05T11:38:51.523Z,939.5
2018-10-05T11:39:51.422Z,939.7
2018-10-05T11:40:52.561Z,939.5
2018-10-05T11:41:52.509Z,939.7
2018-10-05T11:42:52.448Z,939.7
2018-10-05T11:43:52.347Z,939.7
2018-10-05T11:44:52.257Z,939.7
2018-10-05T11:45:52.164Z,939.6
2018-10-05T11:46:52.080Z,939.6
2018-10-05T11:47:52.037Z,939.6
2018-10-05T11:48:51.950Z,939.6
2018-10-05T11:49:51.874Z,939.6
2018-10-05T11:50:52.233Z,939.6
2018-10-05T11:51:52.156Z,939.6
2018-10-05T11:52:52.071Z,939.5
2018-10-05T11:53:52.005Z,939.5
2018-10-05T11:54:51.920Z,939.4
2018-10-05T11:55:51.827Z,939.4
2018-10-05T11:56:51.762Z,939.5
2018-10-05T11:57:51.663Z,939.5
2018-10-05T11:58:51.576Z,939.5
2018-10-05T11:59:52.249Z,939.1
2018-10-05T12:00:52.833Z,939.5
2018-10-05T12:01:52.742Z,939.4
2018-10-05T12:02:52.674Z,939.5
2018-10-05T12:03:52.582Z,939.4
2018-10-05T12:04:52.519Z,939
2018-10-05T12:05:52.417Z,939.3
2018-10-05T12:06:52.321Z,939.3
2018-10-05T12:07:52.231Z,939.3
2018-10-05T12:08:52.133Z,939.3
2018-10-05T12:09:52.034Z,939.2
2018-10-05T12:10:52.382Z,939.3
2018-10-05T12:11:52.335Z,939.3
2018-10-05T12:12:52.250Z,939.3
2018-10-05T12:13:52.944Z,939.3
2018-10-05T12:14:52.893Z,939.3
2018-10-05T12:15:52.826Z,939.3
2018-10-05T12:16:52.777Z,939.2
2018-10-05T12:17:52.691Z,939.3
2018-10-05T12:18:52.600Z,939.2
2018-10-05T12:19:53.004Z,939.2
2018-10-05T12:20:53.450Z,939
2018-10-05T12:21:53.364Z,939.2
2018-10-05T12:22:53.106Z,939.2
2018-10-05T12:23:52.851Z,939.2
2018-10-05T12:24:52.590Z,939.1
2018-10-05T12:25:52.352Z,939.1
2018-10-05T12:26:52.092Z,939.1
2018-10-05T12:27:51.828Z,939.1
2018-10-05T12:28:51.568Z,939.1
2018-10-05T12:29:51.416Z,939.1
2018-10-05T12:30:51.776Z,938.7
2018-10-05T12:31:51.692Z,939
2018-10-05T12:32:51.588Z,939
2018-10-05T12:33:51.488Z,938.9
2018-10-05T12:34:51.407Z,939
2018-10-05T12:35:51.332Z,939
2018-10-05T12:36:51.254Z,939
2018-10-05T12:37:51.160Z,939
2018-10-05T12:38:51.077Z,939
2018-10-05T12:39:50.987Z,939
2018-10-05T12:40:51.361Z,939
2018-10-05T12:41:51.421Z,939
2018-10-05T12:42:51.329Z,938.9
2018-10-05T12:43:51.257Z,938.6
2018-10-05T12:44:51.153Z,938.7
2018-10-05T12:45:51.067Z,938.9
2018-10-05T12:46:50.977Z,938.8
2018-10-05T12:47:50.891Z,938.9
2018-10-05T12:48:50.812Z,938.9
2018-10-05T12:49:50.755Z,938.8
2018-10-05T12:50:51.125Z,938.9
2018-10-05T12:51:51.033Z,938.9
2018-10-05T12:52:50.948Z,938.8
2018-10-05T12:53:50.858Z,938.8
2018-10-05T12:54:50.764Z,938.8